Saturday, September 22, 2018, 9:34 AM EDT
Back to Local

KLOM, Philadelphia, Wings Field Airport

Location: Blue Bell, PA, United States Lat: 40.138
Local Time: 9:34 AM EDT (13:34 GMT) Lon: -75.265
Time Zone: US/Eastern Elev: 301 ft

Show me the last for .
Show Decoded

2018-09-22 09:15 METAR KLOM 221315Z AUTO 36003KT 10SM CLR 21/16 A3012 RMK AO1 =
2018-09-22 08:55 METAR KLOM 221255Z AUTO 35004KT 10SM CLR 20/16 A3011 RMK AO1 =
2018-09-22 08:35 METAR KLOM 221235Z AUTO 34004KT 10SM CLR 21/15 A3011 RMK AO1 =
2018-09-22 08:15 METAR KLOM 221215Z AUTO 35007G14KT 10SM CLR 21/17 A3010 RMK AO1 =
2018-09-22 07:55 METAR KLOM 221155Z AUTO 31003KT 10SM CLR 21/20 A3009 RMK AO1 =
2018-09-22 07:35 METAR KLOM 221135Z AUTO 30003KT 10SM CLR 21/21 A3008 RMK AO1 =
2018-09-22 07:15 METAR KLOM 221115Z AUTO 30003KT 7SM CLR 21/21 A3007 RMK AO1 =
2018-09-22 06:55 METAR KLOM 221055Z AUTO 00000KT 5SM CLR 21/21 A3005 RMK AO1 =
2018-09-22 06:35 METAR KLOM 221035Z AUTO 00000KT 7SM SCT075 21/21 A3005 RMK AO1 =
2018-09-22 06:15 METAR KLOM 221015Z AUTO 00000KT 7SM SCT075 SCT120 21/21 A3004 RMK AO1 =
2018-09-22 05:55 METAR KLOM 220955Z AUTO 00000KT 7SM BKN120 21/21 A3003 RMK AO1 =
2018-09-22 05:35 METAR KLOM 220935Z AUTO 00000KT 7SM BKN110 21/21 A3003 RMK AO1 =
2018-09-22 05:15 METAR KLOM 220915Z AUTO 00000KT 7SM SCT042 SCT060 BKN110 21/21 A3002 RMK AO1 =
2018-09-22 04:55 METAR KLOM 220855Z AUTO 00000KT 7SM SCT012 SCT050 OVC110 21/21 A3001 RMK AO1 =
2018-09-22 04:35 METAR KLOM 220835Z AUTO 25003KT 10SM SCT075 BKN090 OVC110 21/21 A3000 RMK AO1 =
2018-09-22 04:15 METAR KLOM 220815Z AUTO 00000KT 10SM SCT015 SCT049 BKN085 21/21 A3000 RMK AO1 =
2018-09-22 03:55 METAR KLOM 220755Z AUTO 00000KT 10SM BKN015 BKN020 OVC048 22/21 A3000 RMK AO1 =
2018-09-22 03:35 METAR KLOM 220735Z AUTO 24003KT 10SM BKN015 BKN022 BKN120 22/21 A3000 RMK AO1 =
2018-09-22 03:15 METAR KLOM 220715Z AUTO 26003KT 10SM SCT020 SCT120 22/21 A3000 RMK AO1 =
2018-09-22 02:55 METAR KLOM 220655Z AUTO 25005KT 10SM SCT014 SCT110 22/21 A3000 RMK AO1 =
2018-09-22 02:35 METAR KLOM 220635Z AUTO 24006KT 10SM BKN014 BKN020 OVC100 22/21 A3000 RMK AO1 =
2018-09-22 02:15 METAR KLOM 220615Z AUTO 23005KT 10SM OVC014 22/21 A3001 RMK AO1 =
2018-09-22 01:55 METAR KLOM 220555Z AUTO 23008KT 200V260 10SM OVC016 22/21 A3000 RMK AO1 =
2018-09-22 01:35 METAR KLOM 220535Z AUTO 24009G14KT 220V280 10SM OVC016 22/20 A3000 RMK AO1 =
2018-09-22 01:15 METAR KLOM 220515Z AUTO 22009G15KT 10SM OVC018 22/20 A2999 RMK AO1 =
2018-09-22 00:55 METAR KLOM 220455Z AUTO 21008KT 10SM BKN023 OVC027 22/20 A3000 RMK AO1 =
2018-09-22 00:35 METAR KLOM 220435Z AUTO 20009G15KT 10SM SCT017 OVC025 22/20 A3001 RMK AO1 =
2018-09-22 00:15 METAR KLOM 220415Z AUTO 22008KT 10SM SCT017 OVC025 22/20 A3002 RMK AO1 =
2018-09-21 23:55 METAR KLOM 220355Z AUTO 21006KT 10SM OVC025 22/20 A3003 RMK AO1 =
2018-09-21 23:35 METAR KLOM 220335Z AUTO 20005KT 10SM OVC025 22/20 A3003 RMK AO1 =
2018-09-21 23:15 METAR KLOM 220315Z AUTO 19006KT 10SM OVC025 22/20 A3004 RMK AO1 =
2018-09-21 22:55 METAR KLOM 220255Z AUTO 20003KT 10SM OVC025 22/20 A3004 RMK AO1 =
2018-09-21 22:35 METAR KLOM 220235Z AUTO 20004KT 10SM OVC027 22/19 A3005 RMK AO1 =
2018-09-21 22:15 METAR KLOM 220215Z AUTO 20005KT 10SM OVC027 22/19 A3005 RMK AO1 =
2018-09-21 21:55 METAR KLOM 220155Z AUTO 00000KT 10SM OVC027 22/20 A3005 RMK AO1 =
2018-09-21 21:35 METAR KLOM 220135Z AUTO 20005KT 10SM OVC029 21/20 A3005 RMK AO1 =
2018-09-21 21:15 METAR KLOM 220115Z AUTO 19004KT 10SM OVC029 21/20 A3005 RMK AO1 =
2018-09-21 20:50 METAR KLOM 220050Z AUTO 19004KT 10SM OVC029 21/20 A3005 RMK AO1 =
2018-09-21 20:35 METAR KLOM 220035Z AUTO 19004KT 10SM OVC029 21/20 A3004 RMK AO1 =
2018-09-21 20:15 METAR KLOM 220015Z AUTO 18007KT 10SM OVC029 21/20 A3003 RMK AO1 =
2018-09-21 19:55 METAR KLOM 212355Z AUTO 18007KT 10SM OVC029 21/20 A3002 RMK AO1 =
2018-09-21 19:35 METAR KLOM 212335Z AUTO 17004KT 10SM OVC029 21/19 A3003 RMK AO1 =
2018-09-21 19:15 METAR KLOM 212315Z AUTO 17003KT 10SM SCT020 OVC029 22/19 A3004 RMK AO1 =
2018-09-21 18:55 METAR KLOM 212255Z AUTO 19006KT 10SM SCT022 OVC029 22/19 A3005 RMK AO1 =
2018-09-21 18:35 METAR KLOM 212235Z AUTO 19005KT 10SM OVC026 22/18 A3006 RMK AO1 =
2018-09-21 18:15 METAR KLOM 212215Z AUTO 18009G14KT 10SM OVC026 22/18 A3005 RMK AO1 =
2018-09-21 17:55 METAR KLOM 212155Z AUTO 19005KT 10SM BKN026 BKN034 22/18 A3006 RMK AO1 =
2018-09-21 17:35 METAR KLOM 212135Z AUTO 19006G14KT 10SM SCT026 BKN036 22/18 A3007 RMK AO1 =
2018-09-21 17:15 METAR KLOM 212115Z AUTO 20008G14KT 10SM SCT029 OVC036 22/18 A3008 RMK AO1 =
2018-09-21 16:55 METAR KLOM 212055Z AUTO 19006KT 10SM BKN025 OVC031 22/18 A3009 RMK AO1 =
2018-09-21 16:35 METAR KLOM 212035Z AUTO 21008KT 10SM OVC025 22/18 A3010 RMK AO1 =
2018-09-21 16:15 METAR KLOM 212015Z AUTO 20010G14KT 10SM OVC025 22/18 A3011 RMK AO1 =
2018-09-21 15:50 METAR KLOM 211950Z AUTO 19008KT 160V220 10SM OVC027 22/18 A3011 RMK AO1 =
2018-09-21 15:35 METAR KLOM 211935Z AUTO 20005KT 10SM OVC027 22/18 A3012 RMK AO1 =
2018-09-21 15:15 METAR KLOM 211915Z AUTO 20004KT 10SM OVC029 22/18 A3012 RMK AO1 =
2018-09-21 14:55 METAR KLOM 211855Z AUTO 19005KT 10SM BKN029 OVC036 22/18 A3013 RMK AO1 =
2018-09-21 14:35 METAR KLOM 211835Z AUTO 19007KT 10SM SCT031 OVC038 22/17 A3014 RMK AO1 =
2018-09-21 14:15 METAR KLOM 211815Z AUTO 19007KT 10SM SCT029 OVC038 22/17 A3015 RMK AO1 =
2018-09-21 13:55 METAR KLOM 211755Z AUTO 19008KT 10SM SCT029 BKN042 OVC048 22/17 A3017 RMK AO1 =
2018-09-21 13:35 METAR KLOM 211735Z AUTO 18006KT 10SM SCT025 SCT029 OVC046 22/18 A3017 RMK AO1 =
2018-09-21 13:15 METAR KLOM 211715Z AUTO 18008KT 10SM BKN029 BKN034 OVC046 22/18 A3018 RMK AO1 =
2018-09-21 12:55 METAR KLOM 211655Z AUTO 18006KT 10SM SCT025 OVC031 22/18 A3019 RMK AO1 =
2018-09-21 12:35 METAR KLOM 211635Z AUTO 18006G14KT 10SM SCT021 BKN028 OVC040 22/18 A3020 RMK AO1
                 =
2018-09-21 12:15 METAR KLOM 211615Z AUTO 17008KT 10SM SCT023 BKN028 OVC040 22/18 A3020 RMK AO1 =
2018-09-21 11:55 METAR KLOM 211555Z AUTO 19006KT 10SM SCT021 BKN026 OVC038 21/17 A3021 RMK AO1 =
2018-09-21 11:35 METAR KLOM 211535Z AUTO 20007KT 10SM SCT019 SCT027 OVC040 21/17 A3022 RMK AO1 =
2018-09-21 11:15 METAR KLOM 211515Z AUTO 18007KT 10SM SCT018 SCT031 OVC040 21/18 A3023 RMK AO1 =
2018-09-21 10:55 METAR KLOM 211455Z AUTO 16006KT 10SM SCT018 OVC038 20/17 A3023 RMK AO1 =
2018-09-21 10:35 METAR KLOM 211435Z AUTO 16006KT 10SM SCT016 SCT031 OVC038 20/17 A3024 RMK AO1 =
2018-09-21 10:15 METAR KLOM 211415Z AUTO 19005KT 10SM SCT016 SCT031 OVC038 20/17 A3025 RMK AO1 =
2018-09-21 09:55 METAR KLOM 211355Z AUTO 16005KT 10SM SCT016 OVC038 20/17 A3025 RMK AO1 =
2018-09-21 09:35 METAR KLOM 211335Z AUTO 17004KT 10SM SCT018 SCT022 OVC038 20/17 A3025 RMK AO1 =

Support USWX by starting your Amazon purchase here.